No particular awareness of the weather is required.    There are no Weather-warnings


Meteo18 Weather Cam more information Meteo18 Weather Cam


Thunder radar more information blitzortung!


Rain radar more information rain snow radar


Visit our other weather sites:

Template documentation
and downloads

And another site



Weather Underground History page Text

Daily Summary for November 19, 2017 Units:  English    Metric   Both
« Previous Day
Next Day »
Daily Weekly Monthly Yearly Custom
  High: Low: Average:
Temperature: TemperatureC °F 2.4 °F 5.4 °F
Dew Point: DewpointC °F 1.8 °F 4.5 °F
Humidity: Humidity % 88 % 93 %
Wind Speed: WindSpeedKMH mph 0.0 mph 1.8 mph
Wind Gust: WindSpeedGustKMH mph - -
Wind:- - WSW
Pressure: PressurehPa in 1023.6 in -
Precipitation: 0.0 in    
Historical Graphs
 
 
Tabular Data for November 19, 2017
Time Temperature Dew Point Pressure Wind Wind Speed Wind Gust Humidity Rainfall Rate (Hourly)
TemperatureC °F DewpointC °F PressurehPa in Calm     Humidity % HourlyPrecipMM in
00:02 4.7 °F 3.4 °F 1024.6 in Calm   1.6 mph 91 % 0.0 in
00:07 4.7 °F 3.4 °F 1024.6 in Calm   1.6 mph 91 % 0.0 in
00:12 4.7 °F 3.4 °F 1024.6 in WSW 1.6 mph 1.6 mph 91 % 0.0 in
00:17 4.7 °F 3.5 °F 1024.6 in WSW 1.6 mph 1.6 mph 92 % 0.0 in
00:22 4.8 °F 3.6 °F 1024.6 in WSW 1.6 mph 1.6 mph 92 % 0.0 in
00:32 4.9 °F 3.6 °F 1024.3 in Calm   3.2 mph 91 % 0.0 in
00:37 4.8 °F 3.5 °F 1024.3 in SSE 1.6 mph 6.4 mph 91 % 0.0 in
00:42 4.8 °F 3.5 °F 1024.3 in South 1.6 mph 6.4 mph 91 % 0.0 in
00:52 4.9 °F 3.9 °F 1024.3 in SW 4.8 mph 6.4 mph 93 % 0.0 in
00:57 5.3 °F 4.0 °F 1024.3 in WNW 6.4 mph 11.3 mph 91 % 0.0 in
01:02 5.6 °F 3.9 °F 1024.3 in West 8.0 mph 11.3 mph 89 % 0.0 in
01:07 5.6 °F 3.9 °F 1024.3 in West 6.4 mph 14.5 mph 89 % 0.0 in
01:12 5.7 °F 3.9 °F 1024.3 in West 3.2 mph 14.5 mph 88 % 0.0 in
01:17 5.6 °F 3.8 °F 1023.9 in SW 4.8 mph 14.5 mph 88 % 0.0 in
01:22 5.6 °F 3.9 °F 1023.9 in SW 3.2 mph 9.7 mph 89 % 0.0 in
01:27 5.5 °F 3.8 °F 1024.3 in West 4.8 mph 8.0 mph 89 % 0.0 in
01:32 5.5 °F 3.8 °F 1024.3 in WNW 4.8 mph 8.0 mph 89 % 0.0 in
01:37 5.4 °F 3.7 °F 1024.3 in WSW 4.8 mph 14.5 mph 89 % 0.0 in
01:42 5.4 °F 3.7 °F 1024.3 in SW 1.6 mph 14.5 mph 89 % 0.0 in
01:47 5.5 °F 3.8 °F 1024.3 in WNW 3.2 mph 14.5 mph 89 % 0.0 in
01:52 5.5 °F 3.8 °F 1023.9 in WNW 6.4 mph 14.5 mph 89 % 0.0 in
02:02 5.4 °F 3.7 °F 1023.9 in WSW 3.2 mph 11.3 mph 89 % 0.0 in
02:07 5.4 °F 3.7 °F 1023.9 in Calm   8.0 mph 89 % 0.0 in
02:12 5.4 °F 3.7 °F 1023.9 in West 1.6 mph 4.8 mph 89 % 0.0 in
02:17 5.4 °F 3.7 °F 1023.9 in Calm   4.8 mph 89 % 0.0 in
02:22 5.4 °F 3.9 °F 1023.9 in WSW 1.6 mph 3.2 mph 90 % 0.0 in
02:32 5.4 °F 3.7 °F 1023.9 in Calm   1.6 mph 89 % 0.0 in
02:37 5.4 °F 3.7 °F 1024.3 in Calm   1.6 mph 89 % 0.0 in
02:42 5.4 °F 3.9 °F 1023.9 in Calm   3.2 mph 90 % 0.0 in
02:47 5.6 °F 4.1 °F 1023.9 in Calm   3.2 mph 90 % 0.0 in
02:52 5.1 °F 3.6 °F 1023.6 in WSW 6.4 mph 9.7 mph 90 % 0.0 in
02:57 5.7 °F 4.2 °F 1023.6 in WSW 4.8 mph 9.7 mph 90 % 0.0 in
03:02 5.7 °F 4.2 °F 1023.6 in WSW 4.8 mph 8.0 mph 90 % 0.0 in
03:07 5.7 °F 4.2 °F 1023.6 in WSW 4.8 mph 6.4 mph 90 % 0.0 in
09:37 4.9 °F 4.3 °F 1023.6 in West 4.8 mph 12.9 mph 96 % 0.0 in
09:42 4.9 °F 4.3 °F 1023.9 in West 8.0 mph 12.9 mph 96 % 0.0 in
09:47 4.9 °F 4.3 °F 1023.9 in West 4.8 mph 12.9 mph 96 % 0.0 in
09:52 4.9 °F 4.3 °F 1023.9 in West 4.8 mph 14.5 mph 96 % 0.0 in
09:57 4.9 °F 4.3 °F 1023.9 in WSW 8.0 mph 14.5 mph 96 % 0.0 in
10:02 5.0 °F 4.4 °F 1023.9 in WNW 6.4 mph 14.5 mph 96 % 0.0 in
10:12 5.1 °F 4.5 °F 1024.3 in West 1.6 mph 12.9 mph 96 % 0.0 in
10:17 5.0 °F 4.4 °F 1024.3 in WNW 6.4 mph 12.9 mph 96 % 0.0 in
10:22 5.1 °F 4.5 °F 1024.3 in West 3.2 mph 9.7 mph 96 % 0.0 in
10:32 5.1 °F 4.5 °F 1024.3 in West 6.4 mph 9.7 mph 96 % 0.0 in
10:52 5.1 °F 4.5 °F 1024.3 in WNW 9.7 mph 12.9 mph 96 % 0.0 in
11:02 5.2 °F 4.6 °F 1024.6 in WNW 6.4 mph 12.9 mph 96 % 0.0 in
11:12 5.2 °F 4.6 °F 1024.3 in NW 8.0 mph 11.3 mph 96 % 0.0 in
11:17 5.2 °F 4.6 °F 1024.6 in WNW 4.8 mph 9.7 mph 96 % 0.0 in
11:37 5.3 °F 4.7 °F 1024.6 in West 3.2 mph 6.4 mph 96 % 0.0 in
11:42 5.4 °F 4.8 °F 1024.3 in WSW 1.6 mph 6.4 mph 96 % 0.0 in
11:52 5.4 °F 4.8 °F 1024.3 in Calm   6.4 mph 96 % 0.0 in
12:02 5.6 °F 5.0 °F 1024.3 in SSW 1.6 mph 3.2 mph 96 % 0.0 in
12:12 5.7 °F 5.1 °F 1023.9 in West 4.8 mph 4.8 mph 96 % 0.0 in
12:22 5.9 °F 5.3 °F 1024.3 in West 3.2 mph 6.4 mph 96 % 0.0 in
12:32 6.0 °F 5.3 °F 1024.3 in Calm   6.4 mph 95 % 0.0 in
12:37 6.1 °F 5.5 °F 1024.3 in Calm   6.4 mph 96 % 0.0 in
12:42 6.2 °F 5.5 °F 1024.3 in WNW 1.6 mph 4.8 mph 95 % 0.0 in
12:47 6.2 °F 5.5 °F 1024.3 in Calm   4.8 mph 95 % 0.0 in
13:02 6.3 °F 5.6 °F 1024.3 in Calm   6.4 mph 95 % 0.0 in
13:07 6.4 °F 5.7 °F 1024.3 in WNW 1.6 mph 8.0 mph 95 % 0.0 in
13:12 6.4 °F 5.7 °F 1024.3 in Calm   8.0 mph 95 % 0.0 in
13:17 6.6 °F 5.9 °F 1024.3 in Calm   6.4 mph 95 % 0.0 in
13:22 6.6 °F 5.9 °F 1024.3 in Calm   4.8 mph 95 % 0.0 in
13:27 6.6 °F 5.7 °F 1024.3 in Calm   3.2 mph 94 % 0.0 in
13:42 6.8 °F 5.9 °F 1024.3 in Calm   1.6 mph 94 % 0.0 in
13:52 6.7 °F 5.8 °F 1024.3 in NW 3.2 mph 4.8 mph 94 % 0.0 in
13:57 6.7 °F 5.8 °F 1024.3 in NW 4.8 mph 4.8 mph 94 % 0.0 in
14:02 6.7 °F 5.8 °F 1024.3 in NNW 3.2 mph 6.4 mph 94 % 0.0 in
14:12 6.8 °F 5.9 °F 1024.3 in NW 3.2 mph 6.4 mph 94 % 0.0 in
14:17 6.8 °F 5.9 °F 1024.3 in North 3.2 mph 4.8 mph 94 % 0.0 in
14:22 6.7 °F 6.0 °F 1024.3 in NW 1.6 mph 6.4 mph 95 % 0.0 in
14:27 6.8 °F 6.1 °F 1024.3 in NW 1.6 mph 6.4 mph 95 % 0.0 in
14:37 6.8 °F 6.1 °F 1024.3 in Calm   4.8 mph 95 % 0.0 in
14:42 6.8 °F 6.1 °F 1024.3 in Calm   4.8 mph 95 % 0.0 in
14:47 6.9 °F 6.2 °F 1024.3 in Calm   3.2 mph 95 % 0.0 in
14:57 7.0 °F 6.3 °F 1024.3 in NW 3.2 mph 3.2 mph 95 % 0.0 in
15:02 7.0 °F 6.1 °F 1024.3 in NNW 1.6 mph 4.8 mph 94 % 0.0 in
15:12 7.0 °F 6.1 °F 1024.3 in North 3.2 mph 6.4 mph 94 % 0.0 in
15:17 7.0 °F 6.1 °F 1024.3 in NNE 3.2 mph 6.4 mph 94 % 0.0 in
15:27 6.9 °F 6.0 °F 1024.3 in NNW 4.8 mph 9.7 mph 94 % 0.0 in
15:32 6.9 °F 6.0 °F 1024.3 in North 3.2 mph 6.4 mph 94 % 0.0 in
15:37 6.9 °F 6.0 °F 1024.3 in NE 8.0 mph 8.0 mph 94 % 0.0 in
15:47 6.8 °F 5.9 °F 1024.3 in Calm   11.3 mph 94 % 0.0 in
15:52 6.8 °F 5.9 °F 1024.6 in NE 1.6 mph 11.3 mph 94 % 0.0 in
15:57 6.8 °F 5.9 °F 1024.6 in NNW 1.6 mph 9.7 mph 94 % 0.0 in
16:02 6.7 °F 5.8 °F 1024.6 in North 3.2 mph 3.2 mph 94 % 0.0 in
16:07 6.7 °F 5.8 °F 1024.6 in Calm   4.8 mph 94 % 0.0 in
16:17 6.7 °F 5.8 °F 1024.6 in NNE 1.6 mph 4.8 mph 94 % 0.0 in
16:27 6.7 °F 5.8 °F 1024.6 in Calm   3.2 mph 94 % 0.0 in
16:32 6.7 °F 5.8 °F 1024.6 in Calm   1.6 mph 94 % 0.0 in
16:37 6.6 °F 5.5 °F 1024.6 in Calm   1.6 mph 93 % 0.0 in
16:42 6.6 °F 5.5 °F 1024.6 in WNW 1.6 mph 1.6 mph 93 % 0.0 in
16:47 6.5 °F 5.4 °F 1024.6 in Calm   3.2 mph 93 % 0.0 in
16:57 6.4 °F 5.4 °F 1024.9 in Calm   3.2 mph 93 % 0.0 in
17:27 6.2 °F 5.2 °F 1024.9 in West 1.6 mph 4.8 mph 93 % 0.0 in
17:32 6.2 °F 5.2 °F 1024.9 in Calm   3.2 mph 93 % 0.0 in
17:37 6.1 °F 5.1 °F 1024.9 in Calm   1.6 mph 93 % 0.0 in
17:52 5.8 °F 4.9 °F 1024.9 in Calm   1.6 mph 94 % 0.0 in
17:57 5.8 °F 4.9 °F 1024.9 in Calm   1.6 mph 94 % 0.0 in
18:07 5.6 °F 4.7 °F 1025.3 in Calm   1.6 mph 94 % 0.0 in
18:12 5.6 °F 4.7 °F 1025.3 in Calm   1.6 mph 94 % 0.0 in
18:17 5.6 °F 4.7 °F 1025.3 in Calm   1.6 mph 94 % 0.0 in
18:27 5.4 °F 4.5 °F 1025.3 in Calm   3.2 mph 94 % 0.0 in
18:42 5.7 °F 5.0 °F 1025.6 in Calm   1.6 mph 95 % 0.0 in
18:57 5.6 °F 4.7 °F 1025.6 in Calm     94 % 0.0 in
19:02 5.7 °F 4.8 °F 1025.6 in Calm     94 % 0.0 in
19:17 5.6 °F 4.7 °F 1025.6 in Calm     94 % 0.0 in
19:22 5.6 °F 4.7 °F 1025.6 in Calm     94 % 0.0 in
19:27 5.6 °F 4.7 °F 1025.6 in Calm     94 % 0.0 in
19:37 5.4 °F 4.5 °F 1025.6 in Calm     94 % 0.0 in
19:42 5.4 °F 4.7 °F 1026.0 in Calm     95 % 0.0 in
19:47 5.4 °F 4.7 °F 1026.0 in Calm     95 % 0.0 in
19:52 5.4 °F 4.7 °F 1026.0 in Calm     95 % 0.0 in
20:02 5.3 °F 4.6 °F 1026.0 in Calm     95 % 0.0 in
20:07 5.3 °F 4.6 °F 1026.0 in Calm     95 % 0.0 in
20:17 5.3 °F 4.6 °F 1026.0 in Calm     95 % 0.0 in
20:27 5.3 °F 4.7 °F 1026.3 in Calm   1.6 mph 96 % 0.0 in
20:32 5.3 °F 4.7 °F 1026.3 in Calm     96 % 0.0 in
20:37 5.3 °F 4.7 °F 1026.3 in Calm     96 % 0.0 in
20:47 5.3 °F 4.7 °F 1026.3 in Calm   1.6 mph 96 % 0.0 in
20:57 5.3 °F 4.7 °F 1026.6 in Calm   1.6 mph 96 % 0.0 in
21:02 5.2 °F 4.6 °F 1026.6 in Calm   1.6 mph 96 % 0.0 in
21:07 5.2 °F 4.6 °F 1026.6 in Calm   1.6 mph 96 % 0.0 in
21:12 5.2 °F 4.6 °F 1026.6 in Calm   1.6 mph 96 % 0.0 in
21:22 5.1 °F 4.5 °F 1026.6 in Calm   1.6 mph 96 % 0.0 in
21:32 5.0 °F 4.4 °F 1026.6 in Calm   1.6 mph 96 % 0.0 in
21:42 5.0 °F 4.4 °F 1026.6 in Calm   1.6 mph 96 % 0.0 in
21:52 4.9 °F 4.3 °F 1026.6 in Calm   1.6 mph 96 % 0.0 in
21:57 4.9 °F 4.3 °F 1026.6 in Calm   1.6 mph 96 % 0.0 in
22:02 4.8 °F 4.2 °F 1026.6 in Calm   1.6 mph 96 % 0.0 in
22:17 4.7 °F 4.1 °F 1026.6 in Calm   1.6 mph 96 % 0.0 in
22:22 4.6 °F 4.0 °F 1026.6 in SE 1.6 mph 1.6 mph 96 % 0.0 in
22:27 4.4 °F 3.8 °F 1026.6 in Calm   1.6 mph 96 % 0.0 in
22:32 4.3 °F 3.7 °F 1026.6 in Calm   1.6 mph 96 % 0.0 in
22:37 4.2 °F 3.6 °F 1026.6 in Calm   1.6 mph 96 % 0.0 in
22:52 3.7 °F 3.1 °F 1026.6 in Calm     96 % 0.0 in
22:57 3.5 °F 2.9 °F 1026.6 in WNW 1.6 mph   96 % 0.0 in
23:02 3.3 °F 2.7 °F 1026.6 in Calm   1.6 mph 96 % 0.0 in
23:07 3.4 °F 3.0 °F 1026.6 in Calm   1.6 mph 97 % 0.0 in
23:12 3.6 °F 3.2 °F 1026.6 in Calm   1.6 mph 97 % 0.0 in
23:17 3.3 °F 2.7 °F 1026.6 in Calm   1.6 mph 96 % 0.0 in
23:22 3.0 °F 2.4 °F 1026.6 in Calm   1.6 mph 96 % 0.0 in
23:27 2.9 °F 2.3 °F 1026.6 in Calm   1.6 mph 96 % 0.0 in
23:32 2.8 °F 2.2 °F 1026.6 in Calm     96 % 0.0 in
23:37 2.7 °F 2.1 °F 1026.6 in Calm     96 % 0.0 in
23:47 2.5 °F 1.9 °F 1026.6 in Calm     96 % 0.0 in
23:52 2.4 °F 1.8 °F 1026.6 in Calm     96 % 0.0 in
Meteo18
Compliments of Weather Underground - 4 mb

Script developed by  Jim McMurry - jmcmurry@mwt.net Adapted for the template by  Wim van der Kuil - Leuven-Template.eu

You find our weather info also at:

European Weather Network

Weather Underground

Equipment we use:

Weather-station
Davis Vue

Weather-program
Meteobridge

Weather-server
Raspberry PI 2 B+

Provider
1 and 1

Davis Vue

Meteobridge

Raspberry PI 2 B+

1 and 1